首页
METAR-TAF:

METAR-TAF

机场 :

Bluefield, 西維吉尼亞州, 美国

纬度: 37-17-45N, 经度: 081-12-28W, 海拔: 871米

当前天气观测

该预报发布于51分钟前的02:52 UTC
风速6节,风向多变
温度 7°C
湿度 76%
气压 1020 hPa
能見度: 16.1公里
阴天层高于4300英尺

METAR: KBLF 170252Z AUTO VRB06KT 10SM OVC043 07/03 A3011 RMK AO2 SLP184 T00720028 51020

时间: 23:43 (03:43 UTC)

预报

该预报发布于4小时和23分钟前的23:20 UTC
预报有效从17日的 00点(UTC)到 17日的 24点(UTC)
风速11节,风向西转西北,有时为19节阵风
能見度: 10公里
散云层高于2500英尺
从 17日的 1500点(UTC)
风速13节,风向西转西北,有时为22节阵风
能見度: 10公里
天空无云
从 17日的 1900点(UTC)
风速10节,风向西转西北
能見度: 10公里
天空无云

TAF: KBLF 162320Z 1700/1724 30011G19KT P6SM SCT025 FM171500 30013G22KT P6SM SKC FM171900 30010KT P6SM SKC

超过4000个机场的气象观测和天气预报(METAR&TAF报告)。

可查询的气象台以黄色和红色小点在地图上表示。

将鼠标移到小点上方,可查看气象台名称。

然后点击查看天气观测和预报。

如需切换地图:点击带黑十字的绿色按钮放大地图;点击带横线的绿色按钮缩小地图;或者点击绿色箭头查看邻近地区的地图。


METAR-TAF: